Time;durP1;ratioP1;P1;durP2;ratioP2;P2;SDS_P1;SDS_P2;PMS_P1;PMS_P2;Temp;Humidity;BMP_temperature;BMP_pressure;BME280_temperature;BME280_humidity;BME280_pressure;Samples;Min_cycle;Max_cycle;Signal;HPM_P1;HPM_P2
2022/07/16 00:03:44;;;;;;;0.98;0.63;;;25.20;37.20;;;;;;4996028;28;20113;-56
2022/07/16 00:06:10;;;;;;;2.65;0.50;;;25.20;37.20;;;;;;4996131;28;20125;-56
2022/07/16 00:08:36;;;;;;;0.55;0.50;;;25.20;37.20;;;;;;5005704;28;20033;-52
2022/07/16 00:11:01;;;;;;;1.00;0.60;;;25.20;37.30;;;;;;5014132;28;20056;-53
2022/07/16 00:13:27;;;;;;;0.70;0.50;;;25.20;37.30;;;;;;5001408;28;20026;-51
2022/07/16 00:15:54;;;;;;;0.90;0.60;;;25.20;37.30;;;;;;5015732;28;20479;-52
2022/07/16 00:21:05;;;;;;;1.23;0.70;;;25.20;37.50;;;;;;5015501;28;20038;-50
2022/07/16 00:23:30;;;;;;;1.30;0.70;;;25.20;37.50;;;;;;5015108;28;20092;-50
2022/07/16 00:25:56;;;;;;;1.15;0.77;;;25.20;37.50;;;;;;5013039;28;20041;-51
2022/07/16 00:28:22;;;;;;;0.65;0.60;;;25.10;37.50;;;;;;5014318;28;20449;-52
2022/07/16 00:30:48;;;;;;;0.95;0.50;;;25.10;37.60;;;;;;5013975;28;20070;-50
2022/07/16 00:33:14;;;;;;;1.02;0.60;;;25.10;37.60;;;;;;5015622;28;20045;-54
2022/07/16 00:35:40;;;;;;;0.60;0.57;;;25.10;37.70;;;;;;5013930;28;20041;-52
2022/07/16 00:38:07;;;;;;;1.10;0.50;;;25.10;37.70;;;;;;5013965;28;20099;-49
2022/07/16 00:40:33;;;;;;;0.90;0.70;;;25.10;37.80;;;;;;5014716;28;20032;-51
2022/07/16 00:43:01;;;;;;;0.60;0.50;;;25.10;37.80;;;;;;5017752;28;20087;-49
2022/07/16 00:45:27;;;;;;;1.42;0.70;;;25.10;37.90;;;;;;5018822;28;20045;-50
2022/07/16 00:47:53;;;;;;;1.02;0.70;;;25.10;37.90;;;;;;5018606;28;20109;-50
2022/07/16 00:50:19;;;;;;;1.45;0.77;;;25.10;37.90;;;;;;5017749;28;20141;-48
2022/07/16 00:52:44;;;;;;;1.00;0.80;;;25.10;38.00;;;;;;5017905;28;20065;-49
2022/07/16 00:55:10;;;;;;;0.95;0.70;;;25.10;38.10;;;;;;5017585;28;20029;-49
2022/07/16 00:57:36;;;;;;;1.80;0.82;;;25.10;38.10;;;;;;5018583;28;20444;-49
2022/07/16 01:00:04;;;;;;;0.95;0.68;;;25.10;38.10;;;;;;5018650;28;20034;-48
2022/07/16 01:02:31;;;;;;;1.20;0.50;;;25.10;38.20;;;;;;5000914;28;20042;-52
2022/07/16 01:04:57;;;;;;;0.70;0.40;;;25.10;38.20;;;;;;5010901;28;20025;-51
2022/07/16 01:07:23;;;;;;;0.95;0.73;;;25.10;38.20;;;;;;5017793;28;20420;-50
2022/07/16 01:09:50;;;;;;;0.90;0.60;;;25.10;38.30;;;;;;5015515;28;20065;-54
2022/07/16 01:12:16;;;;;;;1.00;0.70;;;25.10;38.40;;;;;;5017385;28;20044;-54
2022/07/16 01:14:43;;;;;;;0.88;0.70;;;25.10;38.40;;;;;;5016049;28;20449;-50
2022/07/16 01:17:09;;;;;;;1.20;0.68;;;25.00;38.40;;;;;;4998879;28;20089;-52
2022/07/16 01:19:35;;;;;;;1.10;0.73;;;25.00;38.40;;;;;;4998778;28;20430;-52
2022/07/16 01:22:01;;;;;;;1.30;0.60;;;25.00;38.50;;;;;;4998891;28;20471;-49
2022/07/16 01:24:26;;;;;;;2.22;0.60;;;25.00;38.50;;;;;;5005420;28;20369;-47
2022/07/16 01:26:52;;;;;;;0.70;0.60;;;25.00;38.60;;;;;;5018059;28;20037;-51
2022/07/16 01:29:18;;;;;;;0.90;0.60;;;25.00;38.60;;;;;;5018230;28;20365;-50
2022/07/16 01:31:44;;;;;;;1.13;0.50;;;25.00;38.70;;;;;;5018180;28;20139;-48
2022/07/16 01:34:24;;;;;;;1.00;0.45;;;25.00;38.70;;;;;;5017351;28;20036;-52
2022/07/16 01:36:54;;;;;;;0.77;0.50;;;25.00;38.80;;;;;;5017030;28;20134;-49
2022/07/16 01:39:21;;;;;;;1.85;0.60;;;25.00;38.80;;;;;;5018457;28;20029;-49
2022/07/16 01:41:55;;;;;;;1.83;0.70;;;25.00;38.90;;;;;;5017393;28;20108;-51
2022/07/16 01:44:23;;;;;;;1.52;0.88;;;25.00;39.00;;;;;;5017427;28;20026;-52
2022/07/16 01:46:50;;;;;;;3.35;0.80;;;25.00;39.00;;;;;;5016068;28;20101;-53
2022/07/16 01:49:16;;;;;;;0.98;0.65;;;25.00;39.00;;;;;;4998186;28;20101;-49
2022/07/16 01:51:41;;;;;;;1.42;0.85;;;25.00;39.10;;;;;;4998313;28;20071;-52
2022/07/16 01:54:07;;;;;;;0.90;0.50;;;25.00;39.10;;;;;;5001776;28;20036;-49
2022/07/16 01:56:33;;;;;;;0.80;0.40;;;25.00;39.20;;;;;;5016595;28;20365;-53
2022/07/16 01:58:59;;;;;;;2.10;0.60;;;25.00;39.30;;;;;;5016275;28;20030;-50
2022/07/16 02:01:25;;;;;;;1.08;0.60;;;25.00;39.30;;;;;;5017377;28;20109;-53
2022/07/16 02:03:51;;;;;;;1.00;0.70;;;25.00;39.40;;;;;;5017203;28;20026;-49
2022/07/16 02:06:17;;;;;;;1.23;0.50;;;25.00;39.40;;;;;;5018150;28;20348;-53
2022/07/16 02:08:42;;;;;;;2.03;0.70;;;25.00;39.50;;;;;;5016544;28;20030;-55
2022/07/16 02:11:08;;;;;;;2.42;0.50;;;25.00;39.50;;;;;;5016512;28;20468;-52
2022/07/16 02:13:34;;;;;;;1.15;0.60;;;25.00;39.60;;;;;;5018043;28;20099;-46
2022/07/16 02:16:00;;;;;;;1.13;0.60;;;25.00;39.60;;;;;;5016608;28;20049;-52
2022/07/16 02:18:26;;;;;;;1.23;0.57;;;24.90;39.60;;;;;;5015422;28;20048;-47
2022/07/16 02:20:53;;;;;;;0.60;0.50;;;24.90;39.70;;;;;;5017731;28;20033;-52
2022/07/16 02:23:19;;;;;;;0.57;0.40;;;24.90;39.70;;;;;;5016758;28;20034;-48
2022/07/16 02:25:45;;;;;;;1.40;0.80;;;25.00;39.80;;;;;;5016691;28;20057;-53
2022/07/16 02:28:11;;;;;;;1.42;0.70;;;24.90;39.80;;;;;;5016004;28;20452;-53
2022/07/16 02:30:40;;;;;;;0.82;0.60;;;24.90;39.90;;;;;;5015701;28;20125;-52
2022/07/16 02:33:07;;;;;;;0.90;0.60;;;24.90;40.00;;;;;;5017299;28;20120;-56
2022/07/16 02:35:33;;;;;;;2.70;0.60;;;24.90;40.00;;;;;;5016946;28;20030;-54
2022/07/16 02:37:59;;;;;;;0.73;0.50;;;24.90;40.10;;;;;;5016986;28;20048;-57
2022/07/16 02:40:25;;;;;;;0.50;0.40;;;24.90;40.10;;;;;;5013737;28;20640;-57
2022/07/16 02:42:51;;;;;;;1.15;0.60;;;24.90;40.20;;;;;;5016508;28;20038;-53
2022/07/16 02:45:17;;;;;;;0.50;0.43;;;24.90;40.20;;;;;;5015918;28;20034;-55
2022/07/16 02:47:43;;;;;;;0.68;0.50;;;24.90;40.20;;;;;;5014884;28;20065;-55
2022/07/16 02:50:09;;;;;;;1.02;0.52;;;24.90;40.30;;;;;;5016449;28;20053;-50
2022/07/16 02:52:35;;;;;;;2.10;0.70;;;24.90;40.30;;;;;;5015954;28;20037;-53
2022/07/16 02:55:02;;;;;;;0.52;0.40;;;24.90;40.30;;;;;;5015389;28;20033;-49
2022/07/16 02:57:27;;;;;;;1.67;0.70;;;24.90;40.40;;;;;;5016617;28;20100;-50
2022/07/16 02:59:53;;;;;;;1.35;0.70;;;24.90;40.40;;;;;;5016822;28;20045;-50
2022/07/16 03:02:19;;;;;;;1.35;0.60;;;24.90;40.40;;;;;;5016436;28;20440;-53
2022/07/16 03:04:45;;;;;;;0.98;0.40;;;24.90;40.50;;;;;;5014050;28;20092;-53
2022/07/16 03:07:11;;;;;;;0.68;0.60;;;24.90;40.50;;;;;;5016592;28;20064;-58
2022/07/16 03:09:37;;;;;;;1.55;0.60;;;24.80;40.50;;;;;;5015388;28;20048;-53
2022/07/16 03:12:03;;;;;;;1.42;0.50;;;24.90;40.60;;;;;;5016403;28;20440;-52
2022/07/16 03:14:29;;;;;;;1.42;0.60;;;24.80;40.50;;;;;;5014669;28;20026;-50
2022/07/16 03:16:55;;;;;;;1.27;0.57;;;24.90;40.60;;;;;;5014349;28;20085;-52
2022/07/16 03:19:20;;;;;;;1.48;0.50;;;24.80;40.60;;;;;;5016387;28;20037;-51
2022/07/16 03:21:46;;;;;;;0.77;0.60;;;24.90;40.70;;;;;;5016730;28;20026;-51
2022/07/16 03:24:12;;;;;;;1.02;0.60;;;24.80;40.70;;;;;;5014704;28;20061;-52
2022/07/16 03:26:38;;;;;;;0.43;0.38;;;24.90;40.80;;;;;;5016127;28;20029;-53
2022/07/16 03:29:04;;;;;;;1.30;0.65;;;24.80;40.80;;;;;;5013976;28;20124;-52
2022/07/16 03:31:29;;;;;;;0.77;0.50;;;24.80;40.80;;;;;;5015684;28;20041;-57
2022/07/16 03:33:55;;;;;;;1.13;0.57;;;24.80;40.90;;;;;;5016077;28;20192;-51
2022/07/16 03:36:22;;;;;;;0.93;0.50;;;24.80;40.90;;;;;;5015917;28;20116;-54
2022/07/16 03:41:26;;;;;;;2.90;0.68;;;24.80;41.00;;;;;;5015295;28;20334;-53
2022/07/16 03:43:52;;;;;;;0.73;0.50;;;24.80;41.10;;;;;;5015555;28;20026;-53
2022/07/16 03:46:18;;;;;;;1.15;0.55;;;24.80;41.20;;;;;;5015472;28;20030;-50
2022/07/16 03:48:45;;;;;;;0.63;0.40;;;24.80;41.20;;;;;;5015257;28;20053;-58
2022/07/16 03:51:11;;;;;;;0.50;0.47;;;24.80;41.30;;;;;;5014884;28;20100;-56
2022/07/16 03:53:38;;;;;;;1.35;0.57;;;24.80;41.30;;;;;;5014576;28;20044;-52
2022/07/16 03:56:04;;;;;;;0.63;0.35;;;24.80;41.40;;;;;;5014124;28;20040;-53
2022/07/16 03:58:30;;;;;;;0.60;0.50;;;24.80;41.40;;;;;;5015776;28;20022;-55
2022/07/16 04:00:56;;;;;;;0.60;0.50;;;24.80;41.40;;;;;;5015318;28;20025;-55
2022/07/16 04:03:23;;;;;;;0.45;0.40;;;24.80;41.50;;;;;;5014075;28;20030;-57
2022/07/16 04:05:50;;;;;;;2.50;0.60;;;24.80;41.60;;;;;;5014649;28;20042;-50
2022/07/16 04:08:16;;;;;;;0.63;0.40;;;24.80;41.70;;;;;;5015287;28;20105;-56
2022/07/16 04:10:42;;;;;;;0.90;0.50;;;24.80;41.70;;;;;;5014118;28;20132;-60
2022/07/16 04:13:08;;;;;;;1.88;0.68;;;24.80;41.80;;;;;;5015645;28;20109;-50
2022/07/16 04:15:33;;;;;;;0.80;0.40;;;24.80;41.80;;;;;;5014521;28;20112;-55
2022/07/16 04:17:59;;;;;;;1.15;0.50;;;24.80;41.90;;;;;;5014857;28;20445;-49
2022/07/16 04:20:25;;;;;;;1.38;0.63;;;24.80;41.90;;;;;;5014274;28;20034;-53
2022/07/16 04:22:51;;;;;;;2.30;0.70;;;24.80;42.00;;;;;;5015229;28;20112;-56
2022/07/16 04:25:17;;;;;;;0.60;0.50;;;24.80;42.10;;;;;;5013429;28;20037;-53
2022/07/16 04:27:43;;;;;;;0.85;0.50;;;24.80;42.10;;;;;;5013274;28;20026;-51
2022/07/16 04:30:10;;;;;;;0.90;0.50;;;24.80;42.20;;;;;;5014896;28;20038;-51
2022/07/16 04:32:38;;;;;;;0.63;0.40;;;24.80;42.30;;;;;;5014875;28;20041;-53
2022/07/16 04:35:05;;;;;;;1.00;0.60;;;24.80;42.40;;;;;;5014440;28;20034;-53
2022/07/16 04:37:31;;;;;;;0.70;0.47;;;24.80;42.50;;;;;;5013336;28;20075;-51
2022/07/16 04:39:57;;;;;;;0.80;0.40;;;24.80;42.60;;;;;;5013159;28;20040;-50
2022/07/16 04:42:22;;;;;;;1.15;0.80;;;24.70;42.70;;;;;;5014101;28;20030;-50
2022/07/16 04:44:48;;;;;;;1.50;0.70;;;24.80;42.80;;;;;;5014879;28;20034;-51
2022/07/16 04:47:14;;;;;;;0.40;0.30;;;24.80;42.90;;;;;;5015350;28;20034;-50
2022/07/16 04:49:40;;;;;;;0.80;0.50;;;24.80;43.10;;;;;;5014797;28;20052;-52
2022/07/16 04:52:06;;;;;;;0.88;0.57;;;24.80;43.20;;;;;;5012279;28;20121;-51
2022/07/16 04:54:32;;;;;;;0.90;0.40;;;24.80;43.40;;;;;;5015831;28;20456;-53
2022/07/16 04:56:58;;;;;;;1.27;0.73;;;24.80;43.50;;;;;;5014749;28;20033;-51
2022/07/16 04:59:23;;;;;;;0.90;0.50;;;24.80;43.60;;;;;;5014319;28;20037;-48
2022/07/16 05:01:49;;;;;;;0.60;0.43;;;24.80;43.80;;;;;;5014207;28;20045;-48
2022/07/16 05:04:15;;;;;;;1.15;0.50;;;24.80;43.90;;;;;;5014111;28;20034;-56
2022/07/16 05:06:41;;;;;;;1.33;0.45;;;24.80;44.00;;;;;;5013972;28;20056;-54
2022/07/16 05:09:07;;;;;;;0.80;0.50;;;24.80;44.20;;;;;;5013357;28;20428;-50
2022/07/16 05:11:32;;;;;;;1.20;0.50;;;24.80;44.30;;;;;;5014475;28;20465;-54
2022/07/16 05:13:59;;;;;;;0.70;0.40;;;24.80;44.40;;;;;;5013594;28;20065;-50
2022/07/16 05:16:25;;;;;;;1.10;0.40;;;24.80;44.50;;;;;;5014470;28;20026;-52
2022/07/16 05:18:51;;;;;;;1.05;0.50;;;24.80;44.60;;;;;;5013592;28;20034;-49
2022/07/16 05:21:17;;;;;;;1.25;0.50;;;24.80;44.70;;;;;;5013006;28;20045;-52
2022/07/16 05:23:43;;;;;;;1.23;0.40;;;24.80;44.70;;;;;;5013097;28;20033;-55
2022/07/16 05:26:09;;;;;;;1.20;0.60;;;24.80;44.80;;;;;;5014161;28;20065;-55
2022/07/16 05:28:35;;;;;;;1.17;0.50;;;24.80;44.90;;;;;;5016317;28;20385;-56
2022/07/16 05:31:01;;;;;;;0.98;0.50;;;24.80;45.00;;;;;;5018497;28;20130;-55
2022/07/16 05:33:27;;;;;;;1.15;0.50;;;24.80;45.00;;;;;;5015855;28;20429;-56
2022/07/16 05:35:53;;;;;;;0.93;0.50;;;24.80;45.10;;;;;;5018375;28;20109;-57
2022/07/16 05:38:19;;;;;;;0.90;0.50;;;24.80;45.20;;;;;;5016108;28;20030;-54
2022/07/16 05:40:45;;;;;;;0.88;0.50;;;24.80;45.20;;;;;;5018772;28;20094;-52
2022/07/16 05:43:11;;;;;;;1.33;0.50;;;24.80;45.30;;;;;;5018258;28;20038;-53
2022/07/16 05:45:37;;;;;;;0.55;0.32;;;24.90;45.40;;;;;;5017696;28;20026;-56
2022/07/16 05:48:03;;;;;;;1.13;0.40;;;24.90;45.50;;;;;;5017019;28;20026;-56
2022/07/16 05:50:29;;;;;;;1.23;0.47;;;24.80;45.50;;;;;;5018249;28;20025;-54
2022/07/16 05:52:55;;;;;;;1.27;0.80;;;24.90;45.60;;;;;;5017372;28;20038;-55
2022/07/16 05:55:21;;;;;;;0.77;0.47;;;24.80;45.60;;;;;;5017595;28;20129;-52
2022/07/16 05:57:47;;;;;;;0.50;0.40;;;24.80;45.70;;;;;;5016519;28;20030;-52
2022/07/16 06:00:13;;;;;;;0.93;0.60;;;24.90;45.80;;;;;;5016950;28;20030;-56
2022/07/16 06:02:41;;;;;;;1.48;0.60;;;24.90;45.90;;;;;;5017945;28;20030;-50
2022/07/16 06:05:07;;;;;;;0.40;0.30;;;24.80;45.90;;;;;;5017724;28;20026;-56
2022/07/16 06:07:33;;;;;;;1.10;0.40;;;24.90;45.90;;;;;;5016289;28;20030;-56
2022/07/16 06:09:59;;;;;;;0.73;0.40;;;24.90;46.00;;;;;;5017205;28;20041;-53
2022/07/16 06:12:25;;;;;;;1.00;0.50;;;24.90;46.00;;;;;;5016086;28;20038;-47
2022/07/16 06:14:51;;;;;;;1.27;0.45;;;24.90;46.00;;;;;;5017182;28;20044;-56
2022/07/16 06:17:17;;;;;;;1.10;0.50;;;24.90;46.10;;;;;;5016694;28;20040;-52
2022/07/16 06:19:43;;;;;;;1.58;0.40;;;24.90;46.20;;;;;;5017400;28;20096;-49
2022/07/16 06:22:10;;;;;;;0.30;0.25;;;24.90;46.20;;;;;;5014883;28;20038;-54
2022/07/16 06:24:36;;;;;;;0.60;0.40;;;24.90;46.30;;;;;;5015761;28;20535;-48
2022/07/16 06:27:03;;;;;;;0.98;0.40;;;24.90;46.30;;;;;;5016020;28;20385;-56
2022/07/16 06:29:29;;;;;;;1.40;0.40;;;24.90;46.30;;;;;;5016632;28;20045;-52
2022/07/16 06:31:55;;;;;;;0.90;0.60;;;24.90;46.30;;;;;;5015629;28;20061;-53
2022/07/16 06:34:21;;;;;;;1.00;0.50;;;24.90;46.30;;;;;;5016386;28;20329;-53
2022/07/16 06:36:46;;;;;;;2.28;0.40;;;24.90;46.20;;;;;;5016676;28;20041;-52
2022/07/16 06:39:12;;;;;;;0.93;0.50;;;24.90;46.30;;;;;;5015122;28;20022;-50
2022/07/16 06:41:39;;;;;;;3.55;0.70;;;24.90;46.20;;;;;;5013789;28;20392;-50
2022/07/16 06:44:06;;;;;;;1.38;0.50;;;24.90;46.20;;;;;;5015986;28;20030;-55
2022/07/16 06:46:32;;;;;;;2.55;0.70;;;25.00;46.20;;;;;;5016322;28;20025;-53
2022/07/16 06:48:59;;;;;;;3.65;0.90;;;25.00;46.80;;;;;;5016972;28;20077;-55
2022/07/16 06:51:26;;;;;;;2.55;0.75;;;25.00;46.20;;;;;;5016638;28;20116;-53
2022/07/16 06:53:52;;;;;;;1.25;0.70;;;24.90;46.10;;;;;;5013815;28;20113;-53
2022/07/16 06:56:18;;;;;;;1.33;0.80;;;24.90;46.00;;;;;;5016476;28;20108;-55
2022/07/16 06:58:44;;;;;;;1.45;0.70;;;24.90;45.90;;;;;;5016704;28;20038;-54
2022/07/16 07:01:10;;;;;;;1.48;0.50;;;25.00;45.80;;;;;;5016745;28;20038;-53
2022/07/16 07:03:39;;;;;;;1.90;0.80;;;25.00;45.70;;;;;;5015731;28;20040;-57
2022/07/16 07:06:07;;;;;;;1.50;0.57;;;25.00;45.50;;;;;;5013710;28;20054;-50
2022/07/16 07:08:34;;;;;;;2.78;1.00;;;25.00;45.40;;;;;;5013513;28;20400;-51
2022/07/16 07:11:00;;;;;;;1.35;0.68;;;25.00;45.30;;;;;;5014565;28;20361;-51
2022/07/16 07:13:28;;;;;;;0.90;0.60;;;25.00;45.20;;;;;;5015574;28;20022;-53
2022/07/16 07:15:54;;;;;;;0.80;0.50;;;25.00;45.00;;;;;;5014508;28;20092;-54
2022/07/16 07:18:20;;;;;;;1.15;0.60;;;25.00;44.90;;;;;;5012199;28;20026;-53
2022/07/16 07:20:46;;;;;;;1.13;0.47;;;25.00;44.80;;;;;;5013735;28;20520;-51
2022/07/16 07:23:12;;;;;;;1.65;0.60;;;25.00;44.70;;;;;;5010007;28;20038;-56
2022/07/16 07:25:38;;;;;;;0.90;0.50;;;25.00;44.50;;;;;;5013748;28;20061;-52
2022/07/16 07:28:04;;;;;;;1.90;0.40;;;25.00;44.30;;;;;;5013975;28;20045;-54
2022/07/16 07:30:30;;;;;;;1.10;0.40;;;25.00;44.20;;;;;;5015542;28;20100;-54
2022/07/16 07:32:56;;;;;;;1.45;0.65;;;25.00;44.10;;;;;;5016095;28;20437;-51
2022/07/16 07:35:22;;;;;;;1.85;0.65;;;25.10;44.00;;;;;;5001561;28;20043;-51
2022/07/16 07:37:48;;;;;;;1.25;0.50;;;25.00;43.80;;;;;;5000344;28;20037;-54
2022/07/16 07:40:14;;;;;;;1.13;0.50;;;25.00;43.70;;;;;;5011054;28;20022;-51
2022/07/16 07:42:40;;;;;;;1.13;0.52;;;25.00;43.60;;;;;;5015972;28;20394;-55
2022/07/16 07:45:06;;;;;;;0.70;0.50;;;25.10;43.50;;;;;;5009178;28;20038;-55
2022/07/16 07:47:32;;;;;;;1.35;0.40;;;25.10;43.40;;;;;;5015643;28;20038;-54
2022/07/16 07:49:58;;;;;;;0.90;0.50;;;25.10;43.30;;;;;;5014175;28;20046;-52
2022/07/16 07:52:24;;;;;;;2.60;0.40;;;25.10;43.20;;;;;;5015368;28;20042;-56
2022/07/16 07:54:50;;;;;;;0.73;0.38;;;25.10;43.20;;;;;;5014075;28;20112;-52
2022/07/16 07:57:17;;;;;;;0.60;0.40;;;25.10;43.10;;;;;;5015441;28;20042;-51
2022/07/16 07:59:43;;;;;;;0.93;0.50;;;25.10;43.00;;;;;;5014549;28;20029;-51
2022/07/16 08:02:08;;;;;;;0.60;0.50;;;25.10;42.90;;;;;;5008688;28;20029;-51
2022/07/16 08:04:34;;;;;;;0.45;0.30;;;25.10;42.90;;;;;;5011866;28;20095;-54
2022/07/16 08:07:00;;;;;;;0.88;0.55;;;25.10;42.80;;;;;;5015605;28;20030;-50
2022/07/16 08:09:26;;;;;;;0.50;0.30;;;25.10;42.60;;;;;;5014564;28;20034;-55
2022/07/16 08:11:52;;;;;;;2.17;0.43;;;25.10;42.60;;;;;;4998750;28;20050;-51
2022/07/16 08:14:17;;;;;;;1.95;0.47;;;25.10;42.50;;;;;;5004161;28;20345;-54
2022/07/16 08:16:43;;;;;;;0.85;0.30;;;25.10;42.50;;;;;;5012156;28;20034;-51
2022/07/16 08:19:09;;;;;;;1.00;0.30;;;25.10;42.50;;;;;;5012973;28;20080;-52
2022/07/16 08:21:35;;;;;;;0.98;0.50;;;25.10;42.40;;;;;;5007177;28;20037;-51
2022/07/16 08:26:46;;;;;;;0.55;0.25;;;25.10;42.30;;;;;;5009102;28;20036;-53
2022/07/16 08:29:12;;;;;;;1.23;0.40;;;25.10;42.20;;;;;;5008838;28;20026;-49
2022/07/16 08:31:39;;;;;;;1.38;0.40;;;25.10;42.10;;;;;;5009965;28;22220;-48
2022/07/16 08:34:05;;;;;;;2.38;0.40;;;25.10;42.00;;;;;;5010553;28;20030;-52
2022/07/16 08:36:30;;;;;;;0.98;0.45;;;25.10;42.00;;;;;;5008760;28;20029;-50
2022/07/16 08:38:56;;;;;;;0.82;0.50;;;25.10;41.90;;;;;;5007652;28;20391;-47
2022/07/16 08:41:23;;;;;;;0.47;0.38;;;25.10;41.80;;;;;;5005295;28;20026;-53
2022/07/16 08:43:49;;;;;;;0.70;0.30;;;25.20;41.80;;;;;;5008230;28;20605;-53
2022/07/16 08:46:20;;;;;;;0.73;0.22;;;25.10;41.50;;;;;;5006162;28;20104;-57
2022/07/16 08:48:47;;;;;;;1.00;0.40;;;25.20;41.50;;;;;;5009049;28;20049;-52
2022/07/16 08:51:15;;;;;;;0.93;0.38;;;25.20;41.50;;;;;;5007488;28;20038;-55
2022/07/16 08:53:42;;;;;;;1.67;0.50;;;25.20;41.60;;;;;;5004995;28;20652;-54
2022/07/16 08:56:08;;;;;;;2.53;0.50;;;25.30;41.60;;;;;;5008086;28;20128;-50
2022/07/16 08:58:35;;;;;;;1.50;0.60;;;25.30;41.50;;;;;;5008527;28;20509;-50
2022/07/16 09:01:01;;;;;;;3.67;0.70;;;25.30;41.40;;;;;;5008026;28;20042;-51
2022/07/16 09:03:27;;;;;;;0.95;0.40;;;25.30;41.30;;;;;;5009839;28;20096;-50
2022/07/16 09:05:53;;;;;;;2.25;0.68;;;25.30;41.20;;;;;;5012596;28;20050;-52
2022/07/16 09:08:19;;;;;;;5.38;0.40;;;25.30;41.00;;;;;;5013008;28;20100;-56
2022/07/16 09:10:46;;;;;;;0.98;0.40;;;25.30;40.70;;;;;;5009735;28;20457;-54
2022/07/16 09:13:12;;;;;;;0.52;0.40;;;25.30;40.60;;;;;;5013218;28;20048;-54
2022/07/16 09:15:43;;;;;;;1.30;0.50;;;25.40;40.50;;;;;;5008656;28;20022;-57
2022/07/16 09:18:29;;;;;;;0.60;0.30;;;25.40;40.20;;;;;;5008154;28;20026;-51
2022/07/16 09:21:00;;;;;;;0.50;0.25;;;25.40;40.00;;;;;;5010591;28;20036;-56
2022/07/16 09:23:33;;;;;;;0.90;0.40;;;25.40;40.00;;;;;;5016207;28;20026;-52
2022/07/16 09:26:02;;;;;;;1.05;0.30;;;25.40;39.90;;;;;;5011523;28;20084;-56
2022/07/16 09:28:50;;;;;;;0.75;0.30;;;25.30;39.70;;;;;;5006177;28;20030;-51
2022/07/16 09:31:37;;;;;;;0.77;0.30;;;25.40;39.50;;;;;;5005727;28;20042;-57
2022/07/16 09:34:11;;;;;;;0.52;0.30;;;25.40;39.40;;;;;;5009229;28;20041;-54
2022/07/16 09:36:38;;;;;;;0.50;0.20;;;25.40;39.50;;;;;;5006525;28;20080;-58
2022/07/16 09:39:06;;;;;;;0.20;0.20;;;25.40;39.50;;;;;;5015411;28;20053;-48
2022/07/16 09:41:47;;;;;;;0.52;0.30;;;25.30;39.30;;;;;;5005773;28;20112;-50
2022/07/16 09:44:19;;;;;;;0.52;0.30;;;25.40;39.40;;;;;;5005943;28;20033;-55
2022/07/16 09:47:00;;;;;;;2.05;0.30;;;25.40;39.40;;;;;;5004782;28;20049;-56
2022/07/16 09:49:27;;;;;;;0.60;0.20;;;25.30;39.20;;;;;;5007148;28;20052;-53
2022/07/16 09:51:54;;;;;;;0.50;0.30;;;25.40;39.30;;;;;;5007095;28;20462;-50
2022/07/16 09:54:31;;;;;;;1.15;0.32;;;25.40;39.30;;;;;;5007094;28;20030;-55
2022/07/16 09:57:13;;;;;;;0.40;0.20;;;25.40;39.10;;;;;;5009759;28;20108;-53
2022/07/16 09:59:40;;;;;;;1.58;0.30;;;25.40;39.10;;;;;;5006304;28;20030;-59
2022/07/16 10:02:08;;;;;;;0.82;0.35;;;25.40;39.10;;;;;;5005749;28;20034;-51
2022/07/16 10:04:34;;;;;;;0.35;0.20;;;25.40;39.10;;;;;;5009130;28;20384;-55
2022/07/16 10:07:00;;;;;;;0.80;0.35;;;25.40;39.00;;;;;;5004577;28;20023;-55
2022/07/16 10:09:26;;;;;;;0.60;0.20;;;25.40;39.00;;;;;;5008241;28;20506;-51
2022/07/16 10:11:54;;;;;;;0.32;0.20;;;25.40;38.90;;;;;;5004771;28;20044;-55
2022/07/16 10:14:21;;;;;;;0.50;0.22;;;25.40;38.70;;;;;;5008681;28;20082;-54
2022/07/16 10:16:48;;;;;;;0.10;0.10;;;25.40;38.70;;;;;;5008769;28;20109;-55
2022/07/16 10:19:15;;;;;;;0.55;0.30;;;25.40;38.60;;;;;;5006856;28;20074;-54
2022/07/16 10:22:01;;;;;;;0.47;0.30;;;25.40;38.50;;;;;;5005200;28;20038;-51
2022/07/16 10:24:53;;;;;;;0.85;0.28;;;25.40;38.50;;;;;;5004205;28;20035;-58
2022/07/16 10:27:26;;;;;;;0.70;0.40;;;25.50;38.50;;;;;;5007774;28;20029;-49
2022/07/16 10:30:14;;;;;;;0.70;0.38;;;25.40;38.30;;;;;;5004724;28;20026;-46
2022/07/16 10:32:58;;;;;;;1.48;0.20;;;25.40;38.30;;;;;;5005383;28;20072;-58
2022/07/16 10:35:35;;;;;;;0.20;0.10;;;25.50;38.30;;;;;;5003720;28;20157;-53
2022/07/16 10:38:17;;;;;;;0.88;0.25;;;25.40;38.30;;;;;;5003613;28;20068;-54
2022/07/16 10:40:44;;;;;;;2.33;0.30;;;25.50;38.20;;;;;;5006193;28;20049;-51
2022/07/16 10:43:15;;;;;;;0.88;0.25;;;25.50;38.20;;;;;;5006518;28;20048;-56
2022/07/16 10:45:54;;;;;;;0.65;0.50;;;25.50;38.10;;;;;;5004360;28;20476;-58
2022/07/16 10:48:49;;;;;;;0.47;0.22;;;25.50;37.90;;;;;;5004485;28;20058;-53
2022/07/16 10:51:19;;;;;;;0.68;0.30;;;25.50;37.90;;;;;;5003657;28;20038;-57
2022/07/16 10:53:57;;;;;;;0.50;0.25;;;25.50;38.00;;;;;;5008095;28;20453;-52
2022/07/16 10:57:00;;;;;;;0.98;0.40;;;25.50;37.90;;;;;;5006108;28;20030;-53
2022/07/16 10:59:33;;;;;;;0.60;0.20;;;25.60;37.90;;;;;;5003893;28;20022;-56
2022/07/16 11:02:01;;;;;;;1.80;0.32;;;25.50;37.80;;;;;;5003150;28;20353;-56
2022/07/16 11:04:39;;;;;;;0.57;0.32;;;25.60;37.90;;;;;;5007864;28;20356;-55
2022/07/16 11:07:26;;;;;;;0.50;0.30;;;25.50;37.80;;;;;;5004528;28;20031;-53
2022/07/16 11:09:54;;;;;;;0.70;0.30;;;25.60;37.90;;;;;;5003171;28;20058;-50
2022/07/16 11:12:23;;;;;;;0.45;0.17;;;25.60;37.80;;;;;;5014994;28;20065;-53
2022/07/16 11:14:51;;;;;;;1.90;0.20;;;25.60;37.70;;;;;;5010278;28;20080;-59
2022/07/16 11:17:18;;;;;;;3.13;0.45;;;25.60;37.80;;;;;;5004954;28;20405;-55
2022/07/16 11:19:50;;;;;;;1.50;0.40;;;25.60;38.00;;;;;;5016136;28;20065;-56
2022/07/16 11:22:18;;;;;;;1.00;0.40;;;25.70;38.00;;;;;;5011352;28;20064;-53
2022/07/16 11:24:50;;;;;;;0.52;0.28;;;25.70;37.90;;;;;;5013115;28;20036;-54
2022/07/16 11:27:16;;;;;;;0.93;0.30;;;25.70;37.80;;;;;;5004874;28;20088;-53
2022/07/16 11:29:42;;;;;;;0.88;0.28;;;25.70;37.70;;;;;;5008112;28;20053;-51
2022/07/16 11:32:15;;;;;;;1.85;0.40;;;25.70;37.70;;;;;;5002670;28;20076;-52
2022/07/16 11:34:41;;;;;;;0.55;0.30;;;25.80;37.60;;;;;;5001786;28;20038;-52
2022/07/16 11:37:06;;;;;;;0.82;0.30;;;25.80;37.60;;;;;;5010313;28;20324;-56
2022/07/16 11:39:32;;;;;;;0.70;0.40;;;25.80;37.60;;;;;;5005719;28;20037;-55
2022/07/16 11:41:58;;;;;;;0.80;0.40;;;25.80;37.60;;;;;;5003084;28;20049;-54
2022/07/16 11:44:32;;;;;;;1.48;0.30;;;25.80;37.60;;;;;;5002594;28;20038;-59
2022/07/16 11:47:00;;;;;;;0.47;0.20;;;25.80;37.50;;;;;;5007275;28;20461;-54
2022/07/16 11:49:44;;;;;;;0.50;0.20;;;25.80;37.50;;;;;;5003412;28;20038;-48
2022/07/16 11:52:20;;;;;;;0.60;0.30;;;25.80;37.40;;;;;;5005366;28;20061;-53
2022/07/16 11:54:47;;;;;;;1.15;0.30;;;25.80;37.40;;;;;;5004476;28;20038;-52
2022/07/16 11:57:14;;;;;;;0.40;0.40;;;25.80;37.40;;;;;;5003668;28;20456;-59
2022/07/16 11:59:51;;;;;;;1.17;0.20;;;25.80;37.30;;;;;;5004079;28;20157;-52
2022/07/16 12:02:41;;;;;;;0.68;0.25;;;25.80;37.20;;;;;;5006381;28;20038;-55
2022/07/16 12:05:07;;;;;;;0.38;0.25;;;25.90;37.40;;;;;;4997957;28;20026;-55
2022/07/16 12:07:33;;;;;;;0.38;0.20;;;25.80;37.30;;;;;;5003012;28;20438;-55
2022/07/16 12:10:02;;;;;;;0.55;0.22;;;25.80;37.20;;;;;;5002438;28;20393;-57
2022/07/16 12:12:30;;;;;;;0.98;0.30;;;25.80;37.20;;;;;;5004125;28;20070;-56
2022/07/16 12:15:01;;;;;;;1.55;0.30;;;25.80;37.20;;;;;;5002339;28;20377;-53
2022/07/16 12:17:39;;;;;;;0.22;0.20;;;25.80;37.20;;;;;;5004784;28;20109;-57
2022/07/16 12:20:26;;;;;;;1.45;0.30;;;25.80;37.10;;;;;;5006099;28;20061;-55
2022/07/16 12:23:01;;;;;;;0.43;0.30;;;25.80;37.10;;;;;;5003377;28;20484;-57
2022/07/16 12:25:38;;;;;;;1.23;0.30;;;25.80;37.20;;;;;;5004120;28;20030;-58
2022/07/16 12:28:22;;;;;;;0.40;0.20;;;25.90;37.30;;;;;;5002184;28;20368;-53
2022/07/16 12:30:57;;;;;;;1.65;0.40;;;25.90;37.30;;;;;;5006662;28;20365;-57
2022/07/16 12:33:27;;;;;;;1.52;0.40;;;25.90;37.30;;;;;;5006259;28;20076;-55
2022/07/16 12:36:06;;;;;;;1.02;0.30;;;25.90;37.30;;;;;;5011337;28;20091;-52
2022/07/16 12:38:51;;;;;;;0.60;0.30;;;25.90;37.20;;;;;;5009598;28;20037;-60
2022/07/16 12:41:20;;;;;;;0.82;0.28;;;25.90;37.20;;;;;;5001635;28;20034;-56
2022/07/16 12:43:53;;;;;;;0.50;0.38;;;25.80;37.20;;;;;;5003157;28;20397;-57
2022/07/16 12:46:25;;;;;;;1.13;0.50;;;25.80;37.20;;;;;;5003945;28;20042;-57
2022/07/16 12:48:58;;;;;;;1.25;0.35;;;25.80;37.20;;;;;;5003121;28;20301;-57
2022/07/16 12:51:29;;;;;;;1.97;0.23;;;25.90;37.30;;;;;;5004078;28;20044;-54
2022/07/16 12:53:56;;;;;;;1.15;0.22;;;25.90;37.30;;;;;;5003200;28;20069;-56
2022/07/16 12:59:07;;;;;;;0.63;0.30;;;25.90;37.30;;;;;;5005050;28;20092;-51
2022/07/16 13:01:33;;;;;;;0.28;0.20;;;25.90;37.30;;;;;;5002155;28;20034;-60
2022/07/16 13:03:59;;;;;;;0.28;0.10;;;25.90;37.20;;;;;;5001043;28;20038;-56
2022/07/16 13:06:26;;;;;;;1.88;0.57;;;25.90;37.20;;;;;;5003838;28;20017;-58